Time;durP1;ratioP1;P1;durP2;ratioP2;P2;SDS_P1;SDS_P2;PMS_P1;PMS_P2;Temp;Humidity;BMP_temperature;BMP_pressure;BME280_temperature;BME280_humidity;BME280_pressure;Samples;Min_cycle;Max_cycle;Signal;HPM_P1;HPM_P2
2023/04/18 00:01:20;;;;;;;15.50;11.80;;;7.30;99.90;;;;;;5054917;28;20776;-56
2023/04/18 00:03:49;;;;;;;16.03;12.20;;;7.30;99.90;;;;;;5062247;28;20230;-56
2023/04/18 00:06:18;;;;;;;15.63;11.33;;;7.30;99.90;;;;;;5055157;28;20691;-56
2023/04/18 00:08:46;;;;;;;17.43;12.47;;;7.30;99.90;;;;;;5054637;28;20695;-56
2023/04/18 00:11:15;;;;;;;18.93;12.73;;;7.30;99.90;;;;;;5055450;28;20224;-56
2023/04/18 00:13:46;;;;;;;14.80;11.23;;;7.30;99.90;;;;;;5055298;28;20322;-56
2023/04/18 00:16:15;;;;;;;16.53;12.27;;;7.30;99.90;;;;;;5058232;28;20310;-56
2023/04/18 00:18:43;;;;;;;15.10;12.10;;;7.30;99.90;;;;;;5058377;28;20251;-57
2023/04/18 00:21:12;;;;;;;14.47;11.63;;;7.30;99.90;;;;;;5054211;28;20225;-56
2023/04/18 00:23:40;;;;;;;14.83;12.03;;;7.30;99.90;;;;;;5055052;28;20231;-56
2023/04/18 00:26:08;;;;;;;16.40;12.70;;;7.20;99.90;;;;;;5054927;28;20216;-56
2023/04/18 00:28:37;;;;;;;18.53;13.30;;;7.20;99.90;;;;;;5054728;28;20235;-55
2023/04/18 00:31:06;;;;;;;17.17;12.93;;;7.20;99.90;;;;;;5054483;28;20246;-56
2023/04/18 00:33:34;;;;;;;18.73;12.50;;;7.10;99.90;;;;;;5053141;28;20224;-56
2023/04/18 00:36:03;;;;;;;19.70;13.53;;;7.20;99.90;;;;;;5046631;28;20219;-56
2023/04/18 00:38:31;;;;;;;15.37;12.90;;;7.20;99.90;;;;;;5054733;28;20695;-56
2023/04/18 00:40:59;;;;;;;17.93;14.30;;;7.20;99.90;;;;;;5054197;28;20263;-56
2023/04/18 00:43:27;;;;;;;20.87;14.63;;;7.10;99.90;;;;;;5054259;28;20227;-56
2023/04/18 00:45:57;;;;;;;19.07;14.30;;;7.00;99.90;;;;;;5055012;28;20237;-56
2023/04/18 00:48:27;;;;;;;18.13;15.00;;;7.00;99.90;;;;;;5058045;28;20255;-57
2023/04/18 00:50:56;;;;;;;17.57;13.80;;;7.00;99.90;;;;;;5054085;28;20227;-56
2023/04/18 00:53:24;;;;;;;18.27;14.60;;;7.00;99.90;;;;;;5052442;28;20227;-56
2023/04/18 00:55:53;;;;;;;18.13;14.53;;;7.00;99.90;;;;;;5054111;28;20246;-56
2023/04/18 00:58:21;;;;;;;19.67;15.17;;;6.90;99.90;;;;;;5054306;28;20216;-56
2023/04/18 01:00:49;;;;;;;24.20;16.10;;;6.90;99.90;;;;;;5049050;28;20246;-65
2023/04/18 01:03:18;;;;;;;21.60;15.40;;;6.90;99.90;;;;;;5080160;22;20249;-62
2023/04/18 01:05:48;;;;;;;20.07;15.30;;;7.00;99.90;;;;;;5013875;28;20225;-62
2023/04/18 01:08:21;;;;;;;21.50;16.07;;;7.00;99.90;;;;;;5019354;28;20227;-63
2023/04/18 01:10:50;;;;;;;21.37;15.87;;;7.00;99.90;;;;;;5025967;28;20236;-62
2023/04/18 01:13:19;;;;;;;22.50;16.20;;;7.00;99.90;;;;;;5034195;28;20224;-62
2023/04/18 01:15:49;;;;;;;22.23;16.87;;;7.00;99.90;;;;;;5016203;28;20235;-62
2023/04/18 01:18:19;;;;;;;22.60;16.43;;;7.00;99.90;;;;;;4998631;28;20283;-63
2023/04/18 01:20:51;;;;;;;23.87;15.50;;;7.00;99.90;;;;;;5019410;28;20308;-62
2023/04/18 01:23:20;;;;;;;25.17;17.60;;;7.00;99.90;;;;;;5014060;28;20316;-62
2023/04/18 01:25:50;;;;;;;23.10;15.87;;;7.00;99.90;;;;;;4996422;28;20233;-62
2023/04/18 01:28:20;;;;;;;23.33;16.70;;;7.00;99.90;;;;;;5014386;28;20229;-62
2023/04/18 01:30:48;;;;;;;23.03;16.57;;;7.00;99.90;;;;;;4995876;28;20237;-62
2023/04/18 01:33:16;;;;;;;21.87;16.33;;;7.00;99.90;;;;;;5013919;28;20225;-63
2023/04/18 01:35:47;;;;;;;21.90;17.20;;;7.00;99.90;;;;;;5013980;28;20635;-62
2023/04/18 01:38:15;;;;;;;21.27;16.37;;;6.90;99.90;;;;;;5013923;28;20243;-62
2023/04/18 01:40:43;;;;;;;22.00;16.63;;;6.90;99.90;;;;;;5013749;28;20217;-63
2023/04/18 01:43:12;;;;;;;21.97;17.30;;;6.90;99.90;;;;;;5013838;28;20556;-62
2023/04/18 01:45:40;;;;;;;23.47;17.40;;;6.90;99.90;;;;;;5013636;28;20232;-62
2023/04/18 01:48:09;;;;;;;21.90;16.23;;;6.80;99.90;;;;;;5023146;28;20726;-62
2023/04/18 01:50:37;;;;;;;21.77;16.87;;;6.80;99.90;;;;;;5021499;28;20317;-62
2023/04/18 01:53:05;;;;;;;19.87;15.93;;;6.80;99.90;;;;;;5004892;28;20735;-63
2023/04/18 01:55:33;;;;;;;22.17;16.00;;;6.90;99.90;;;;;;4995879;28;20226;-62
2023/04/18 01:58:01;;;;;;;20.80;15.83;;;6.80;99.90;;;;;;5013616;28;20558;-62
2023/04/18 02:00:30;;;;;;;22.47;16.30;;;6.80;99.90;;;;;;4995206;28;20225;-62
2023/04/18 02:02:59;;;;;;;21.27;15.83;;;6.80;99.90;;;;;;5014517;28;20241;-62
2023/04/18 02:05:27;;;;;;;22.00;15.47;;;6.80;99.90;;;;;;5031620;28;20695;-63
2023/04/18 02:07:55;;;;;;;19.50;15.33;;;6.90;99.90;;;;;;5015396;28;20228;-62
2023/04/18 02:10:23;;;;;;;18.53;14.90;;;6.80;99.90;;;;;;5032725;28;20228;-62
2023/04/18 02:12:51;;;;;;;20.77;16.03;;;6.80;99.90;;;;;;5033097;28;20213;-62
2023/04/18 02:15:20;;;;;;;21.10;15.37;;;6.80;99.90;;;;;;5032948;28;20217;-62
2023/04/18 02:17:50;;;;;;;19.00;14.20;;;6.80;99.90;;;;;;5042259;28;20232;-62
2023/04/18 02:20:18;;;;;;;21.30;15.20;;;6.90;99.90;;;;;;5040381;28;20587;-63
2023/04/18 02:22:47;;;;;;;20.07;15.23;;;6.80;99.90;;;;;;5032649;28;20236;-62
2023/04/18 02:25:15;;;;;;;20.30;15.20;;;6.90;99.90;;;;;;5032882;28;20327;-62
2023/04/18 02:27:43;;;;;;;20.23;14.87;;;6.80;99.90;;;;;;5032727;28;20691;-62
2023/04/18 02:30:11;;;;;;;18.43;14.90;;;6.80;99.90;;;;;;5014636;28;20596;-62
2023/04/18 02:32:39;;;;;;;19.83;15.13;;;6.80;99.90;;;;;;5025067;28;20627;-62
2023/04/18 02:35:10;;;;;;;20.13;15.03;;;6.80;99.90;;;;;;5032646;28;20626;-62
2023/04/18 02:37:38;;;;;;;19.13;14.50;;;6.70;99.90;;;;;;5032893;28;20229;-62
2023/04/18 02:40:08;;;;;;;17.60;14.13;;;6.70;99.90;;;;;;5035252;28;20234;-62
2023/04/18 02:42:37;;;;;;;22.50;15.60;;;6.80;99.90;;;;;;5015028;28;20573;-62
2023/04/18 02:45:06;;;;;;;21.10;15.40;;;6.70;99.90;;;;;;5032657;28;20228;-62
2023/04/18 02:47:35;;;;;;;20.87;15.03;;;6.60;99.90;;;;;;5016814;28;20706;-62
2023/04/18 02:50:19;;;;;;;18.90;14.43;;;6.60;99.90;;;;;;5034619;28;20217;-62
2023/04/18 02:52:48;;;;;;;17.30;14.57;;;6.50;99.90;;;;;;5014599;28;20225;-62
2023/04/18 02:55:18;;;;;;;18.53;14.20;;;6.50;99.90;;;;;;5014894;28;20228;-62
2023/04/18 02:57:47;;;;;;;20.90;15.03;;;6.50;99.90;;;;;;5014699;28;20234;-62
2023/04/18 03:00:37;;;;;;;18.27;14.30;;;6.50;99.90;;;;;;4985853;28;20241;-62
2023/04/18 03:03:28;;;;;;;18.13;14.23;;;6.40;99.90;;;;;;5027131;28;20235;-62
2023/04/18 03:06:15;;;;;;;17.70;13.60;;;6.50;99.90;;;;;;5024447;28;20699;-62
2023/04/18 03:08:43;;;;;;;18.37;14.93;;;6.50;99.90;;;;;;5014477;28;20241;-62
2023/04/18 03:11:11;;;;;;;20.83;14.37;;;6.50;99.90;;;;;;5032469;28;20224;-62
2023/04/18 03:13:39;;;;;;;18.30;14.37;;;6.50;99.90;;;;;;5014535;28;20311;-62
2023/04/18 03:16:07;;;;;;;19.97;14.07;;;6.30;99.90;;;;;;5031941;28;20245;-62
2023/04/18 03:18:36;;;;;;;17.43;14.00;;;6.40;99.90;;;;;;5022066;28;20228;-62
2023/04/18 03:21:06;;;;;;;20.30;14.27;;;6.30;99.90;;;;;;5023142;28;20741;-62
2023/04/18 03:23:36;;;;;;;20.37;14.57;;;6.30;99.90;;;;;;5026435;28;20630;-62
2023/04/18 03:26:06;;;;;;;19.67;14.33;;;6.30;99.90;;;;;;5034335;28;20659;-62
2023/04/18 03:28:36;;;;;;;18.43;13.90;;;6.30;99.90;;;;;;5034132;28;20228;-62
2023/04/18 03:31:05;;;;;;;18.03;14.20;;;6.30;99.90;;;;;;5033896;28;20243;-62
2023/04/18 03:33:53;;;;;;;17.43;13.90;;;6.30;99.90;;;;;;5020610;28;20271;-62
2023/04/18 03:36:24;;;;;;;19.23;13.90;;;6.30;99.90;;;;;;5029872;28;20236;-62
2023/04/18 03:38:55;;;;;;;17.70;13.87;;;6.20;99.90;;;;;;5007744;28;20233;-62
2023/04/18 03:41:24;;;;;;;18.33;13.77;;;6.30;99.90;;;;;;5010144;28;20329;-62
2023/04/18 03:43:54;;;;;;;19.27;13.87;;;6.20;99.90;;;;;;5011144;28;20256;-62
2023/04/18 03:46:23;;;;;;;16.90;13.77;;;6.20;99.90;;;;;;4999131;28;20232;-62
2023/04/18 03:48:53;;;;;;;19.03;14.13;;;6.20;99.90;;;;;;5002971;28;20229;-62
2023/04/18 03:51:21;;;;;;;17.87;13.63;;;6.20;99.90;;;;;;5002808;28;20230;-62
2023/04/18 03:53:50;;;;;;;16.97;13.40;;;6.20;99.90;;;;;;5012076;28;20221;-62
2023/04/18 03:56:19;;;;;;;18.60;13.37;;;6.10;99.90;;;;;;4994435;28;20218;-62
2023/04/18 03:58:52;;;;;;;16.80;13.20;;;6.10;99.90;;;;;;5015881;28;20233;-62
2023/04/18 04:01:21;;;;;;;18.17;14.03;;;6.10;99.90;;;;;;5006299;28;20240;-62
2023/04/18 04:03:51;;;;;;;15.80;12.97;;;6.20;99.90;;;;;;5016274;28;20232;-62
2023/04/18 04:06:21;;;;;;;17.13;13.53;;;6.20;99.90;;;;;;5016011;28;20232;-62
2023/04/18 04:08:49;;;;;;;17.53;12.97;;;6.10;99.90;;;;;;5016630;28;20742;-62
2023/04/18 04:11:23;;;;;;;16.83;14.17;;;6.10;99.90;;;;;;4999488;28;20317;-62
2023/04/18 04:13:51;;;;;;;16.03;13.53;;;6.00;99.90;;;;;;4994653;28;20226;-62
2023/04/18 04:16:23;;;;;;;17.20;13.10;;;5.90;99.90;;;;;;5001591;28;20232;-63
2023/04/18 04:18:54;;;;;;;19.60;13.53;;;5.90;99.90;;;;;;4996509;28;20229;-62
2023/04/18 04:21:27;;;;;;;18.47;13.77;;;6.00;99.90;;;;;;4997333;28;20700;-62
2023/04/18 04:23:56;;;;;;;17.73;13.97;;;5.90;99.90;;;;;;5030446;28;20239;-62
2023/04/18 04:26:31;;;;;;;18.13;13.20;;;5.90;99.90;;;;;;4997275;28;20260;-62
2023/04/18 04:29:08;;;;;;;16.37;13.37;;;5.90;99.90;;;;;;5030515;28;20243;-62
2023/04/18 04:31:38;;;;;;;16.87;13.10;;;5.90;99.90;;;;;;5043582;28;20235;-62
2023/04/18 04:34:07;;;;;;;18.80;14.17;;;5.90;99.90;;;;;;5032085;28;20251;-63
2023/04/18 04:36:36;;;;;;;18.87;14.07;;;5.90;99.90;;;;;;5049603;28;20461;-62
2023/04/18 04:39:07;;;;;;;19.13;12.80;;;5.90;99.90;;;;;;5052916;28;20584;-62
2023/04/18 04:41:54;;;;;;;16.83;13.53;;;5.90;99.90;;;;;;5033176;28;20216;-62
2023/04/18 04:44:25;;;;;;;16.33;12.97;;;5.90;99.90;;;;;;5036464;28;20314;-62
2023/04/18 04:46:54;;;;;;;16.50;13.30;;;6.00;99.90;;;;;;5042918;28;20219;-62
2023/04/18 04:49:28;;;;;;;20.33;13.73;;;5.90;99.90;;;;;;5035769;28;20212;-62
2023/04/18 04:51:56;;;;;;;16.40;12.93;;;5.90;99.90;;;;;;5054492;28;20267;-62
2023/04/18 04:54:26;;;;;;;15.37;12.30;;;5.90;99.90;;;;;;5052188;28;20254;-62
2023/04/18 04:56:56;;;;;;;19.77;13.73;;;5.90;99.90;;;;;;5051604;28;20307;-62
2023/04/18 04:59:26;;;;;;;17.77;13.73;;;5.90;99.90;;;;;;5034355;28;20225;-62
2023/04/18 05:01:54;;;;;;;16.13;12.87;;;6.00;99.90;;;;;;5033943;28;20240;-62
2023/04/18 05:04:23;;;;;;;17.97;14.00;;;6.00;99.90;;;;;;5053375;28;20737;-62
2023/04/18 05:06:51;;;;;;;16.17;13.73;;;6.00;99.90;;;;;;5053676;28;20563;-62
2023/04/18 05:09:19;;;;;;;15.87;12.83;;;6.10;99.90;;;;;;5051303;28;20223;-62
2023/04/18 05:11:48;;;;;;;18.23;14.27;;;6.10;99.90;;;;;;5052035;28;20224;-62
2023/04/18 05:14:19;;;;;;;16.10;13.10;;;6.20;99.90;;;;;;5052333;28;20259;-62
2023/04/18 05:16:47;;;;;;;17.40;13.00;;;6.30;99.90;;;;;;5055533;28;20223;-62
2023/04/18 05:19:15;;;;;;;17.47;13.27;;;6.40;99.90;;;;;;5054140;28;20254;-62
2023/04/18 05:21:43;;;;;;;17.23;12.27;;;6.40;99.90;;;;;;5050990;28;20243;-62
2023/04/18 05:24:11;;;;;;;18.20;12.97;;;6.40;99.90;;;;;;5053550;28;20713;-62
2023/04/18 05:26:40;;;;;;;16.57;12.70;;;6.60;99.90;;;;;;5053894;28;20234;-62
2023/04/18 05:29:08;;;;;;;16.60;12.23;;;6.70;99.90;;;;;;5051554;28;20234;-63
2023/04/18 05:31:37;;;;;;;17.33;13.67;;;6.60;99.90;;;;;;5052631;28;20238;-62
2023/04/18 05:34:05;;;;;;;17.30;13.10;;;6.60;99.90;;;;;;5052069;28;20589;-62
2023/04/18 05:36:33;;;;;;;16.60;12.47;;;6.70;99.90;;;;;;5051687;28;20274;-62
2023/04/18 05:39:02;;;;;;;18.13;13.13;;;6.70;99.90;;;;;;5053061;28;20231;-62
2023/04/18 05:41:30;;;;;;;18.00;12.93;;;6.80;99.90;;;;;;5052823;28;20224;-61
2023/04/18 05:43:58;;;;;;;18.13;12.73;;;6.90;99.90;;;;;;5051648;28;20232;-61
2023/04/18 05:46:45;;;;;;;18.63;13.47;;;6.90;99.90;;;;;;5059675;28;20231;-62
2023/04/18 05:49:13;;;;;;;16.67;12.57;;;7.00;99.90;;;;;;5048800;28;20691;-62
2023/04/18 05:51:41;;;;;;;18.40;13.23;;;7.00;99.90;;;;;;5043940;28;20219;-61
2023/04/18 05:54:09;;;;;;;17.63;13.00;;;7.20;99.90;;;;;;5042022;28;20762;-62
2023/04/18 05:56:38;;;;;;;16.70;12.77;;;7.20;99.90;;;;;;5042080;28;21188;-62
2023/04/18 05:59:06;;;;;;;14.90;12.07;;;7.30;99.90;;;;;;5040788;28;21265;-62
2023/04/18 06:01:35;;;;;;;18.47;12.63;;;7.40;99.90;;;;;;5041285;28;20251;-61
2023/04/18 06:04:04;;;;;;;16.93;12.30;;;7.40;99.90;;;;;;5041260;28;20817;-61
2023/04/18 06:06:33;;;;;;;16.27;12.13;;;7.40;99.90;;;;;;5042168;28;20246;-61
2023/04/18 06:09:01;;;;;;;16.37;13.03;;;7.60;99.90;;;;;;5042112;28;20235;-61
2023/04/18 06:11:32;;;;;;;15.37;11.73;;;7.60;99.90;;;;;;5042169;28;21338;-62
2023/04/18 06:14:00;;;;;;;16.33;11.57;;;7.80;99.90;;;;;;5042287;28;20232;-61
2023/04/18 06:16:28;;;;;;;14.97;11.20;;;8.00;99.90;;;;;;5042673;28;20235;-61
2023/04/18 06:18:56;;;;;;;16.93;11.43;;;7.90;99.90;;;;;;5040518;28;20231;-61
2023/04/18 06:21:29;;;;;;;16.37;11.27;;;7.90;99.90;;;;;;5042895;28;20228;-61
2023/04/18 06:23:57;;;;;;;15.40;11.53;;;8.00;99.90;;;;;;5042802;28;20257;-61
2023/04/18 06:26:25;;;;;;;15.73;11.93;;;8.10;99.90;;;;;;5041879;28;20595;-62
2023/04/18 06:28:54;;;;;;;16.23;12.47;;;8.10;99.90;;;;;;5040407;28;20231;-61
2023/04/18 06:31:22;;;;;;;15.43;11.03;;;8.20;99.90;;;;;;5041051;28;20223;-61
2023/04/18 06:33:50;;;;;;;17.60;11.90;;;8.30;99.90;;;;;;5039993;28;20224;-60
2023/04/18 06:36:19;;;;;;;15.93;11.63;;;8.70;99.90;;;;;;5040150;28;20683;-61
2023/04/18 06:38:48;;;;;;;13.77;11.23;;;8.70;99.90;;;;;;5038738;28;20232;-61
2023/04/18 06:41:16;;;;;;;17.83;11.00;;;8.90;99.90;;;;;;5041932;28;20229;-60
2023/04/18 06:43:44;;;;;;;13.47;11.47;;;8.90;99.90;;;;;;5039928;28;20236;-60
2023/04/18 06:46:30;;;;;;;15.23;10.47;;;8.90;99.90;;;;;;5040724;28;20636;-61
2023/04/18 06:48:59;;;;;;;14.53;10.33;;;9.10;99.90;;;;;;5037837;28;21090;-60
2023/04/18 06:51:30;;;;;;;15.40;10.40;;;9.30;99.90;;;;;;5040629;28;20223;-61
2023/04/18 06:53:59;;;;;;;13.93;10.17;;;9.60;99.90;;;;;;5041943;28;20703;-61
2023/04/18 06:56:28;;;;;;;19.53;10.40;;;9.50;99.90;;;;;;5042946;28;20248;-61
2023/04/18 06:58:56;;;;;;;14.87;9.47;;;9.50;99.90;;;;;;5042025;28;20236;-61
2023/04/18 07:01:24;;;;;;;14.10;10.00;;;9.70;99.90;;;;;;5043580;28;20242;-60
2023/04/18 07:03:52;;;;;;;14.30;10.07;;;10.00;99.90;;;;;;5043775;28;20696;-60
2023/04/18 07:06:21;;;;;;;15.37;9.90;;;10.10;99.90;;;;;;5043636;28;20261;-60
2023/04/18 07:08:52;;;;;;;12.87;9.57;;;10.20;99.90;;;;;;5040533;28;20324;-60
2023/04/18 07:11:23;;;;;;;18.70;9.40;;;10.30;99.90;;;;;;5043686;28;20635;-61
2023/04/18 07:13:51;;;;;;;14.37;9.40;;;10.30;99.90;;;;;;5043531;28;20240;-60
2023/04/18 07:16:19;;;;;;;13.40;9.43;;;10.30;99.90;;;;;;5044176;28;20232;-60
2023/04/18 07:18:47;;;;;;;14.23;9.17;;;10.50;99.90;;;;;;5042986;28;20814;-62
2023/04/18 07:21:16;;;;;;;19.20;9.07;;;10.50;99.90;;;;;;5047289;28;20790;-60
2023/04/18 07:23:49;;;;;;;12.83;8.50;;;10.60;99.90;;;;;;5047028;28;20233;-61
2023/04/18 07:26:17;;;;;;;12.27;8.77;;;10.60;99.90;;;;;;5047526;28;20237;-61
2023/04/18 07:28:49;;;;;;;11.20;8.27;;;10.50;99.90;;;;;;5045341;28;20600;-61
2023/04/18 07:31:18;;;;;;;11.40;8.77;;;10.30;99.90;;;;;;5046131;28;20298;-61
2023/04/18 07:33:46;;;;;;;11.77;8.80;;;10.40;99.90;;;;;;5046935;28;20307;-62
2023/04/18 07:36:14;;;;;;;14.03;8.67;;;10.40;99.90;;;;;;5047137;28;20889;-60
2023/04/18 07:38:43;;;;;;;10.83;8.10;;;10.20;99.90;;;;;;5045696;28;20584;-60
2023/04/18 07:41:11;;;;;;;12.67;7.80;;;10.10;99.90;;;;;;5047798;28;20569;-60
2023/04/18 07:43:39;;;;;;;11.67;8.23;;;10.20;99.90;;;;;;5046079;28;20234;-61
2023/04/18 07:46:09;;;;;;;10.93;8.40;;;10.50;99.90;;;;;;5046725;28;20237;-60
2023/04/18 07:48:37;;;;;;;13.20;8.10;;;10.60;99.90;;;;;;5045282;28;20268;-61
2023/04/18 07:51:05;;;;;;;9.10;7.23;;;10.70;99.90;;;;;;5046377;28;20244;-61
2023/04/18 07:53:33;;;;;;;11.23;7.40;;;10.80;99.90;;;;;;5046626;28;20233;-61
2023/04/18 07:56:02;;;;;;;11.27;7.77;;;11.00;99.90;;;;;;5043543;28;20235;-61
2023/04/18 07:58:30;;;;;;;10.83;8.07;;;11.20;99.90;;;;;;5042407;28;20628;-61
2023/04/18 08:00:58;;;;;;;9.03;7.07;;;11.20;99.90;;;;;;5042267;28;21290;-61
2023/04/18 08:03:28;;;;;;;9.17;6.87;;;11.20;99.90;;;;;;5041523;28;20346;-61
2023/04/18 08:05:56;;;;;;;12.27;8.17;;;10.90;99.90;;;;;;5043440;28;20708;-61
2023/04/18 08:08:24;;;;;;;10.10;7.20;;;11.00;99.90;;;;;;5044073;28;20816;-61
2023/04/18 08:10:53;;;;;;;11.33;7.47;;;10.90;99.90;;;;;;5045554;28;20260;-60
2023/04/18 08:13:21;;;;;;;9.90;7.50;;;10.90;99.90;;;;;;5045016;28;20284;-60
2023/04/18 08:15:49;;;;;;;10.07;7.07;;;11.20;99.90;;;;;;5041838;28;20234;-61
2023/04/18 08:18:19;;;;;;;10.97;7.50;;;11.20;99.90;;;;;;5040682;28;20257;-61
2023/04/18 08:20:49;;;;;;;13.47;8.00;;;11.20;99.90;;;;;;5040513;28;20247;-61
2023/04/18 08:23:17;;;;;;;12.37;7.50;;;11.10;99.90;;;;;;5041872;28;20237;-60
2023/04/18 08:25:46;;;;;;;10.70;7.37;;;11.20;99.90;;;;;;5044491;28;20569;-61
2023/04/18 08:28:14;;;;;;;11.27;7.10;;;11.20;99.90;;;;;;5041918;28;20262;-60
2023/04/18 08:30:47;;;;;;;10.13;7.53;;;11.40;99.90;;;;;;5040564;28;20643;-60
2023/04/18 08:33:15;;;;;;;11.90;8.13;;;11.90;99.90;;;;;;5042618;28;20235;-60
2023/04/18 08:35:44;;;;;;;9.97;7.10;;;12.20;99.90;;;;;;5042495;28;20958;-61
2023/04/18 08:38:13;;;;;;;11.93;7.43;;;12.40;99.90;;;;;;5044349;28;20223;-60
2023/04/18 08:40:43;;;;;;;7.87;6.77;;;12.60;99.90;;;;;;5044055;28;20238;-61
2023/04/18 08:43:13;;;;;;;7.40;6.60;;;12.60;99.90;;;;;;5046010;28;20232;-60
2023/04/18 08:45:43;;;;;;;8.63;6.60;;;12.90;99.90;;;;;;5046711;28;20234;-61
2023/04/18 08:48:15;;;;;;;10.60;6.97;;;12.90;99.90;;;;;;5046349;28;20337;-61
2023/04/18 08:50:44;;;;;;;9.27;6.50;;;12.80;99.90;;;;;;5044361;28;20235;-60
2023/04/18 08:53:17;;;;;;;7.77;6.27;;;12.60;99.90;;;;;;5045148;28;20239;-61
2023/04/18 08:55:49;;;;;;;9.00;6.83;;;12.60;99.90;;;;;;5045250;28;20675;-61
2023/04/18 08:58:22;;;;;;;8.60;6.40;;;12.80;99.90;;;;;;5045526;28;20608;-60
2023/04/18 09:00:51;;;;;;;7.37;6.20;;;12.80;99.90;;;;;;5042280;28;20257;-60
2023/04/18 09:03:36;;;;;;;7.13;6.00;;;13.20;99.90;;;;;;5041829;28;20250;-60
2023/04/18 09:06:08;;;;;;;8.17;6.43;;;13.60;99.90;;;;;;5042602;28;20724;-60
2023/04/18 09:08:38;;;;;;;8.70;6.33;;;13.50;99.90;;;;;;5039604;28;20223;-61
2023/04/18 09:11:25;;;;;;;9.57;6.73;;;13.80;99.90;;;;;;5043714;28;20234;-60
2023/04/18 09:13:55;;;;;;;8.57;6.23;;;14.20;99.90;;;;;;5041365;28;20668;-61
2023/04/18 09:16:23;;;;;;;8.07;6.70;;;14.10;99.90;;;;;;5041897;28;20227;-60
2023/04/18 09:19:12;;;;;;;8.87;7.00;;;14.20;99.90;;;;;;5040461;28;20898;-59
2023/04/18 09:21:45;;;;;;;9.23;7.27;;;14.00;99.90;;;;;;5041664;28;20237;-61
2023/04/18 09:24:22;;;;;;;9.03;7.33;;;13.80;99.90;;;;;;5041820;28;20324;-61
2023/04/18 09:26:52;;;;;;;10.10;8.47;;;13.40;99.90;;;;;;5041741;28;20326;-60
2023/04/18 09:29:22;;;;;;;11.27;7.90;;;13.00;99.90;;;;;;5039625;28;20231;-60
2023/04/18 09:31:56;;;;;;;9.90;8.63;;;12.80;99.90;;;;;;5039724;28;20242;-60
2023/04/18 09:34:25;;;;;;;14.27;8.97;;;12.60;99.90;;;;;;5043023;28;20330;-61
2023/04/18 09:37:07;;;;;;;11.57;8.50;;;12.40;99.90;;;;;;5044786;28;20235;-60
2023/04/18 09:39:37;;;;;;;14.37;8.87;;;12.20;99.90;;;;;;5042712;28;20777;-60
2023/04/18 09:42:06;;;;;;;13.03;8.73;;;12.20;99.90;;;;;;5043448;28;20240;-61
2023/04/18 09:44:34;;;;;;;10.13;8.80;;;12.60;99.90;;;;;;5043352;28;20236;-60
2023/04/18 09:47:03;;;;;;;12.03;8.90;;;12.90;99.90;;;;;;5043080;28;20787;-60
2023/04/18 09:49:31;;;;;;;9.93;8.43;;;13.10;99.90;;;;;;5042957;28;20234;-60
2023/04/18 09:52:01;;;;;;;10.40;8.53;;;13.30;99.90;;;;;;5044161;28;20888;-60
2023/04/18 09:54:32;;;;;;;10.07;8.03;;;13.50;99.90;;;;;;5045344;28;20232;-61
2023/04/18 09:57:05;;;;;;;10.53;8.30;;;13.40;99.90;;;;;;5044810;28;20598;-60
2023/04/18 09:59:41;;;;;;;11.70;8.43;;;12.80;99.90;;;;;;5042843;28;20578;-59
2023/04/18 10:02:15;;;;;;;11.67;8.93;;;12.40;99.90;;;;;;5043184;28;20249;-61
2023/04/18 10:04:45;;;;;;;12.10;8.53;;;12.30;99.90;;;;;;5043942;28;21151;-60
2023/04/18 10:07:16;;;;;;;13.03;8.80;;;12.20;99.90;;;;;;5043930;28;20239;-60
2023/04/18 10:09:46;;;;;;;11.67;8.70;;;12.30;99.90;;;;;;5042175;28;20254;-60
2023/04/18 10:12:19;;;;;;;11.17;7.93;;;12.50;99.90;;;;;;5042970;28;20630;-60
2023/04/18 10:14:48;;;;;;;8.70;7.87;;;12.50;99.90;;;;;;5043179;28;20242;-61
2023/04/18 10:17:16;;;;;;;12.40;8.50;;;12.50;99.90;;;;;;5041637;28;20336;-61
2023/04/18 10:19:45;;;;;;;10.43;8.57;;;12.50;99.90;;;;;;5037513;28;20903;-61
2023/04/18 10:22:27;;;;;;;8.27;7.33;;;12.80;99.90;;;;;;5038925;28;20693;-61
2023/04/18 10:24:56;;;;;;;9.07;7.20;;;13.10;99.90;;;;;;5039462;28;20219;-60
2023/04/18 10:27:57;;;;;;;8.73;6.90;;;12.90;99.90;;;;;;5039543;28;20680;-61
2023/04/18 10:30:55;;;;;;;8.30;6.93;;;12.50;99.90;;;;;;5037608;28;20239;-61
2023/04/18 10:33:26;;;;;;;8.10;6.50;;;12.40;99.90;;;;;;5039868;28;20242;-60
2023/04/18 10:36:02;;;;;;;8.57;6.13;;;12.10;99.90;;;;;;5040699;28;20230;-61
2023/04/18 10:38:30;;;;;;;8.47;5.57;;;12.00;99.90;;;;;;5038941;28;20612;-61
2023/04/18 10:41:20;;;;;;;7.67;5.70;;;11.90;99.90;;;;;;5039495;28;20690;-60
2023/04/18 10:44:18;;;;;;;7.87;5.63;;;12.00;99.90;;;;;;5037933;28;20231;-61
2023/04/18 10:47:18;;;;;;;7.77;6.03;;;11.70;99.90;;;;;;5040825;28;20258;-60
2023/04/18 10:50:02;;;;;;;8.50;6.40;;;11.50;99.90;;;;;;5037990;28;20248;-60
2023/04/18 10:52:33;;;;;;;9.97;6.23;;;11.40;99.90;;;;;;5039245;28;20230;-61
2023/04/18 10:55:24;;;;;;;9.63;7.07;;;11.30;99.90;;;;;;5041605;28;20233;-60
2023/04/18 10:57:54;;;;;;;10.17;6.97;;;11.30;99.90;;;;;;5042969;28;20317;-60
2023/04/18 11:00:25;;;;;;;9.23;6.60;;;11.20;99.90;;;;;;5042116;28;20275;-60
2023/04/18 11:02:56;;;;;;;10.20;6.83;;;11.20;99.90;;;;;;5042593;28;20236;-60
2023/04/18 11:05:26;;;;;;;7.93;6.27;;;11.20;99.90;;;;;;5043083;28;20237;-60
2023/04/18 11:07:55;;;;;;;7.63;5.90;;;11.30;99.90;;;;;;5043328;28;20876;-61
2023/04/18 11:10:25;;;;;;;7.33;6.40;;;11.30;99.90;;;;;;5037067;28;20232;-61
2023/04/18 11:12:58;;;;;;;10.40;6.43;;;11.30;99.90;;;;;;5038356;28;20318;-61
2023/04/18 11:15:27;;;;;;;7.50;5.87;;;11.30;99.90;;;;;;5038550;28;20235;-61
2023/04/18 11:18:00;;;;;;;9.20;6.13;;;11.20;99.90;;;;;;5039171;28;21097;-60
2023/04/18 11:20:36;;;;;;;6.73;6.00;;;11.20;99.90;;;;;;5038609;28;20238;-61
2023/04/18 11:23:14;;;;;;;7.70;6.53;;;11.30;99.90;;;;;;5040345;28;20324;-60
2023/04/18 11:25:44;;;;;;;10.00;6.67;;;11.20;99.90;;;;;;5039376;28;20226;-61
2023/04/18 11:28:12;;;;;;;8.10;6.37;;;11.10;99.90;;;;;;5042122;28;20297;-60
2023/04/18 11:30:42;;;;;;;8.97;6.73;;;11.10;99.90;;;;;;5041488;28;20242;-61
2023/04/18 11:33:11;;;;;;;8.57;6.57;;;11.00;99.90;;;;;;5042798;28;20238;-61
2023/04/18 11:35:41;;;;;;;10.57;6.60;;;11.10;99.90;;;;;;5043033;28;20235;-60
2023/04/18 11:38:11;;;;;;;8.17;6.47;;;11.10;99.90;;;;;;5042824;28;20215;-61
2023/04/18 11:40:39;;;;;;;9.37;6.73;;;11.40;99.90;;;;;;5023345;28;20253;-60
2023/04/18 11:43:07;;;;;;;11.43;7.43;;;11.60;99.90;;;;;;5041756;28;20383;-61
2023/04/18 11:45:36;;;;;;;10.00;7.90;;;11.60;99.90;;;;;;5039254;28;20238;-61
2023/04/18 11:48:05;;;;;;;8.97;7.50;;;11.80;99.90;;;;;;5039310;28;20246;-61
2023/04/18 11:50:36;;;;;;;12.10;7.50;;;11.80;99.90;;;;;;5037632;28;20242;-61
2023/04/18 11:53:05;;;;;;;8.57;7.57;;;11.80;99.90;;;;;;5039718;28;20251;-61
2023/04/18 11:55:33;;;;;;;9.73;7.63;;;11.90;99.90;;;;;;5040188;28;20239;-60
2023/04/18 11:58:02;;;;;;;10.33;7.37;;;12.00;99.90;;;;;;5040399;28;20234;-61
2023/04/18 12:00:32;;;;;;;9.90;7.70;;;12.10;99.90;;;;;;5039772;28;20230;-60
2023/04/18 12:03:03;;;;;;;11.37;8.13;;;12.20;99.90;;;;;;5043095;28;20910;-60
2023/04/18 12:05:34;;;;;;;12.47;8.63;;;12.10;99.90;;;;;;5044795;28;20234;-61
2023/04/18 12:08:07;;;;;;;10.13;8.43;;;12.00;99.90;;;;;;5046660;28;20317;-61
2023/04/18 12:10:35;;;;;;;10.13;8.63;;;11.90;99.90;;;;;;5045011;28;20716;-61
2023/04/18 12:13:07;;;;;;;11.00;8.03;;;11.90;99.90;;;;;;5045787;28;20220;-61
2023/04/18 12:15:39;;;;;;;10.90;8.33;;;11.80;99.90;;;;;;5046491;28;20254;-61
2023/04/18 12:18:08;;;;;;;9.83;7.27;;;11.90;99.90;;;;;;5046064;28;20269;-61
2023/04/18 12:20:45;;;;;;;8.87;7.30;;;12.00;99.90;;;;;;5043687;28;20707;-60
2023/04/18 12:23:29;;;;;;;9.20;7.23;;;12.00;99.90;;;;;;5046358;28;20226;-60
2023/04/18 12:26:01;;;;;;;8.30;7.37;;;12.10;99.90;;;;;;5046200;28;20229;-60
2023/04/18 12:28:30;;;;;;;8.07;6.83;;;12.20;99.90;;;;;;5043565;28;20273;-61
2023/04/18 12:30:58;;;;;;;9.50;7.27;;;12.10;99.90;;;;;;5044475;28;20235;-61
2023/04/18 12:33:26;;;;;;;8.20;7.40;;;12.10;99.90;;;;;;5046070;28;20229;-61
2023/04/18 12:35:56;;;;;;;8.30;7.50;;;12.10;99.90;;;;;;5045954;28;20241;-61
2023/04/18 12:38:24;;;;;;;7.93;6.63;;;12.10;99.90;;;;;;5044240;28;20223;-60
2023/04/18 12:40:52;;;;;;;7.63;6.80;;;12.10;99.90;;;;;;5044591;28;20238;-60
2023/04/18 12:43:20;;;;;;;9.43;6.70;;;12.10;99.90;;;;;;5046065;28;20230;-60
2023/04/18 12:45:49;;;;;;;7.93;6.97;;;12.10;99.90;;;;;;5045671;28;20719;-61
2023/04/18 12:48:18;;;;;;;7.80;6.73;;;12.00;99.90;;;;;;5045358;28;20230;-61
2023/04/18 12:50:46;;;;;;;6.90;6.20;;;12.20;99.90;;;;;;5042828;28;20801;-61
2023/04/18 12:53:15;;;;;;;8.13;6.17;;;12.10;99.90;;;;;;5046506;28;20231;-60
2023/04/18 12:55:43;;;;;;;6.50;5.77;;;12.10;99.90;;;;;;5041135;28;20239;-60